Time;durP1;ratioP1;P1;durP2;ratioP2;P2;SDS_P1;SDS_P2;PMS_P1;PMS_P2;Temp;Humidity;BMP_temperature;BMP_pressure;BME280_temperature;BME280_humidity;BME280_pressure;Samples;Min_cycle;Max_cycle;Signal;HPM_P1;HPM_P2
2021/07/15 00:00:34;;;;;;;8.93;8.03;;;21.30;1.00;;;;;;5066954;28;20931;-71
2021/07/15 00:03:04;;;;;;;8.73;8.03;;;21.30;1.00;;;;;;5067453;28;20782;-71
2021/07/15 00:05:32;;;;;;;8.70;8.00;;;21.20;1.00;;;;;;5068192;28;20455;-71
2021/07/15 00:07:58;;;;;;;9.07;8.37;;;21.20;1.00;;;;;;5066044;28;20908;-71
2021/07/15 00:10:29;;;;;;;9.07;8.30;;;21.20;1.00;;;;;;5066516;28;20466;-71
2021/07/15 00:12:58;;;;;;;9.07;8.27;;;21.20;1.00;;;;;;5066750;28;20927;-71
2021/07/15 00:15:27;;;;;;;9.03;8.30;;;21.20;1.00;;;;;;5066433;28;20789;-71
2021/07/15 00:17:55;;;;;;;9.57;8.77;;;21.10;1.00;;;;;;5067439;28;20513;-71
2021/07/15 00:20:23;;;;;;;8.40;7.70;;;21.10;1.00;;;;;;5067823;28;20458;-72
2021/07/15 00:22:50;;;;;;;9.13;8.33;;;21.10;1.00;;;;;;5067469;28;20470;-71
2021/07/15 00:25:18;;;;;;;9.13;8.33;;;21.10;1.00;;;;;;5066477;28;20463;-71
2021/07/15 00:27:46;;;;;;;9.37;8.47;;;21.10;1.00;;;;;;5067270;28;20486;-71
2021/07/15 00:30:15;;;;;;;9.80;8.90;;;21.10;1.00;;;;;;5068321;28;20773;-71
2021/07/15 00:32:42;;;;;;;9.37;8.57;;;21.10;1.00;;;;;;5066602;28;20466;-71
2021/07/15 00:35:10;;;;;;;9.20;8.40;;;21.10;1.00;;;;;;5065983;28;20478;-71
2021/07/15 00:37:38;;;;;;;9.43;8.33;;;21.00;1.00;;;;;;5065999;28;20954;-71
2021/07/15 00:40:06;;;;;;;10.13;9.27;;;21.00;1.00;;;;;;5066404;28;20928;-71
2021/07/15 00:42:33;;;;;;;9.50;8.60;;;21.00;1.00;;;;;;5065851;28;20451;-71
2021/07/15 00:45:01;;;;;;;11.43;8.37;;;20.90;1.00;;;;;;5066656;28;20485;-71
2021/07/15 00:47:29;;;;;;;9.90;9.00;;;20.90;1.00;;;;;;5066626;28;20447;-72
2021/07/15 00:49:55;;;;;;;10.03;9.13;;;20.90;1.00;;;;;;5066532;28;20451;-71
2021/07/15 00:52:22;;;;;;;8.93;8.13;;;20.90;1.00;;;;;;5066374;28;20463;-71
2021/07/15 00:54:49;;;;;;;9.33;8.30;;;20.90;1.00;;;;;;5066199;28;20454;-72
2021/07/15 00:57:16;;;;;;;8.70;7.90;;;20.90;1.00;;;;;;5064772;28;20896;-72
2021/07/15 00:59:46;;;;;;;8.17;7.43;;;20.80;1.00;;;;;;5065738;28;20494;-71
2021/07/15 01:02:17;;;;;;;8.70;7.80;;;20.80;1.00;;;;;;5065313;28;20557;-72
2021/07/15 01:04:45;;;;;;;9.20;8.40;;;20.80;1.00;;;;;;5064525;28;20483;-72
2021/07/15 01:07:12;;;;;;;8.10;7.40;;;20.80;1.00;;;;;;5063935;28;20474;-71
2021/07/15 01:09:39;;;;;;;9.20;8.40;;;20.70;1.00;;;;;;5064869;28;20448;-72
2021/07/15 01:12:17;;;;;;;8.70;7.90;;;20.70;1.00;;;;;;5065278;28;20474;-71
2021/07/15 01:14:56;;;;;;;8.43;7.73;;;20.70;1.00;;;;;;5066318;28;20435;-72
2021/07/15 01:17:28;;;;;;;8.90;8.17;;;20.70;1.00;;;;;;5064764;28;20439;-72
2021/07/15 01:20:41;;;;;;;7.93;7.30;;;20.60;1.00;;;;;;5065592;28;20528;-72
2021/07/15 01:23:25;;;;;;;7.90;6.77;;;20.60;1.00;;;;;;5063923;28;20444;-71
2021/07/15 01:26:15;;;;;;;7.47;6.87;;;20.60;1.00;;;;;;5063894;28;20505;-71
2021/07/15 01:29:11;;;;;;;9.70;6.50;;;20.60;1.00;;;;;;5063511;28;20454;-72
2021/07/15 01:31:42;;;;;;;8.03;6.73;;;20.60;1.00;;;;;;5061222;28;20443;-71
2021/07/15 01:34:12;;;;;;;7.77;7.07;;;20.60;1.00;;;;;;5061354;28;20930;-71
2021/07/15 01:36:43;;;;;;;7.60;6.90;;;20.50;1.00;;;;;;5060781;28;20446;-72
2021/07/15 01:39:11;;;;;;;7.40;6.70;;;20.50;1.00;;;;;;5059679;28;20479;-71
2021/07/15 01:41:43;;;;;;;6.87;6.27;;;20.50;1.00;;;;;;5058976;28;20469;-72
2021/07/15 01:44:15;;;;;;;8.67;6.37;;;20.40;1.00;;;;;;5060405;28;20439;-71
2021/07/15 01:46:44;;;;;;;6.50;5.90;;;20.40;1.00;;;;;;5062322;28;20489;-71
2021/07/15 01:49:12;;;;;;;6.30;5.80;;;20.40;1.00;;;;;;5060188;28;20451;-71
2021/07/15 01:51:40;;;;;;;6.37;5.77;;;20.30;1.00;;;;;;5060482;28;20463;-72
2021/07/15 01:54:08;;;;;;;8.57;6.27;;;20.30;1.00;;;;;;5059565;28;20476;-72
2021/07/15 01:56:38;;;;;;;5.80;5.30;;;20.30;1.00;;;;;;5059936;28;20455;-71
2021/07/15 01:59:08;;;;;;;6.17;5.67;;;20.30;1.00;;;;;;5058643;28;20487;-72
2021/07/15 02:01:37;;;;;;;5.73;5.23;;;20.30;1.00;;;;;;5058203;28;20478;-71
2021/07/15 02:04:07;;;;;;;5.63;5.13;;;20.30;1.00;;;;;;5059389;28;20473;-73
2021/07/15 02:06:36;;;;;;;6.00;5.50;;;20.30;1.00;;;;;;5058598;28;20462;-74
2021/07/15 02:09:07;;;;;;;5.60;5.10;;;20.20;1.00;;;;;;5059684;28;20451;-73
2021/07/15 02:11:34;;;;;;;5.70;5.30;;;20.20;1.00;;;;;;5060963;28;20569;-73
2021/07/15 02:14:04;;;;;;;5.50;5.10;;;20.20;1.00;;;;;;5062771;28;20473;-73
2021/07/15 02:16:32;;;;;;;6.50;5.90;;;20.20;1.00;;;;;;5061906;28;20447;-73
2021/07/15 02:19:00;;;;;;;6.37;5.77;;;20.20;1.00;;;;;;5061598;28;20979;-73
2021/07/15 02:21:31;;;;;;;6.47;5.87;;;20.20;1.00;;;;;;5059411;28;20468;-73
2021/07/15 02:23:59;;;;;;;6.33;5.83;;;20.10;1.00;;;;;;5057788;28;20443;-76
2021/07/15 02:26:26;;;;;;;6.57;5.87;;;20.10;1.00;;;;;;5057981;28;20455;-72
2021/07/15 02:28:56;;;;;;;6.43;5.87;;;20.10;1.00;;;;;;5058464;28;20454;-73
2021/07/15 02:31:29;;;;;;;6.37;5.77;;;20.10;1.00;;;;;;5058310;28;20466;-72
2021/07/15 02:33:59;;;;;;;6.57;6.07;;;20.10;3.10;;;;;;5057666;28;20447;-73
2021/07/15 02:36:30;;;;;;;6.80;6.20;;;20.00;5.00;;;;;;5058424;28;20466;-72
2021/07/15 02:38:59;;;;;;;11.70;6.90;;;20.00;11.30;;;;;;5057825;28;20502;-73
2021/07/15 02:41:25;;;;;;;6.40;5.90;;;20.00;18.60;;;;;;5057598;28;20466;-73
2021/07/15 02:43:52;;;;;;;9.53;7.50;;;20.00;21.10;;;;;;5057682;28;20470;-73
2021/07/15 02:46:19;;;;;;;7.63;6.83;;;20.00;23.80;;;;;;5057599;28;20494;-72
2021/07/15 02:48:47;;;;;;;7.30;6.70;;;20.00;26.40;;;;;;5057771;28;20463;-72
2021/07/15 02:51:14;;;;;;;9.80;6.60;;;20.00;25.10;;;;;;5057909;28;20463;-73
2021/07/15 02:53:42;;;;;;;6.43;5.93;;;20.00;25.60;;;;;;5058612;28;20465;-73
2021/07/15 02:56:22;;;;;;;6.93;6.33;;;19.90;21.20;;;;;;5058159;28;20456;-73
2021/07/15 02:58:57;;;;;;;7.43;6.77;;;19.90;16.60;;;;;;5058015;28;20772;-73
2021/07/15 03:01:29;;;;;;;7.40;6.70;;;19.90;14.00;;;;;;5058492;28;20764;-73
2021/07/15 03:04:01;;;;;;;7.10;6.50;;;19.80;11.30;;;;;;5058572;28;20461;-73
2021/07/15 03:06:34;;;;;;;7.20;6.40;;;19.80;15.60;;;;;;5058514;28;20447;-73
2021/07/15 03:09:11;;;;;;;7.13;6.43;;;19.70;19.40;;;;;;5058197;28;20436;-73
2021/07/15 03:11:42;;;;;;;7.93;7.20;;;19.70;26.20;;;;;;5057850;28;20447;-73
2021/07/15 03:14:09;;;;;;;7.60;6.90;;;19.60;30.00;;;;;;5058028;28;20454;-73
2021/07/15 03:16:40;;;;;;;6.90;6.30;;;19.60;33.40;;;;;;5057629;28;20466;-73
2021/07/15 03:19:08;;;;;;;6.53;6.03;;;19.60;33.10;;;;;;5057835;28;20498;-73
2021/07/15 03:21:38;;;;;;;6.73;6.13;;;19.50;39.30;;;;;;5058036;28;20776;-72
2021/07/15 03:24:10;;;;;;;7.73;5.57;;;19.50;46.10;;;;;;5057988;28;20434;-73
2021/07/15 03:26:42;;;;;;;9.63;5.90;;;19.40;49.80;;;;;;5058305;28;20443;-72
2021/07/15 03:29:13;;;;;;;6.70;5.10;;;19.40;59.70;;;;;;5057962;28;20477;-72
2021/07/15 03:31:40;;;;;;;6.97;5.30;;;19.40;72.20;;;;;;5061922;28;20762;-72
2021/07/15 03:34:08;;;;;;;7.13;6.43;;;19.30;77.10;;;;;;5062265;28;20455;-72
2021/07/15 03:36:35;;;;;;;5.90;5.30;;;19.40;77.20;;;;;;5061669;28;20470;-72
2021/07/15 03:39:02;;;;;;;8.10;5.70;;;19.30;80.10;;;;;;5061254;28;20481;-73
2021/07/15 03:41:31;;;;;;;6.33;5.73;;;19.30;84.90;;;;;;5061737;28;20455;-73
2021/07/15 03:43:58;;;;;;;7.13;6.07;;;19.40;93.00;;;;;;5061731;28;20459;-72
2021/07/15 03:46:31;;;;;;;5.87;5.23;;;19.40;93.80;;;;;;5060942;28;20491;-72
2021/07/15 03:48:58;;;;;;;6.30;5.70;;;19.40;97.70;;;;;;5063724;28;20818;-73
2021/07/15 03:51:26;;;;;;;6.30;5.70;;;19.40;99.00;;;;;;5063570;28;20455;-73
2021/07/15 03:53:53;;;;;;;6.10;5.50;;;19.40;99.90;;;;;;5063840;28;20459;-73
2021/07/15 03:56:21;;;;;;;6.80;6.00;;;19.50;99.60;;;;;;5064635;28;20459;-73
2021/07/15 03:58:49;;;;;;;6.17;5.57;;;19.50;99.90;;;;;;5063948;28;20455;-72
2021/07/15 04:01:17;;;;;;;6.60;6.00;;;19.50;99.90;;;;;;5063771;28;20455;-72
2021/07/15 04:03:46;;;;;;;7.93;6.40;;;19.50;99.90;;;;;;5063750;28;20508;-72
2021/07/15 04:06:15;;;;;;;6.43;5.83;;;19.50;99.90;;;;;;5065597;28;20451;-72
2021/07/15 04:08:44;;;;;;;6.50;5.90;;;19.50;99.90;;;;;;5063955;28;20466;-72
2021/07/15 04:11:15;;;;;;;6.77;6.13;;;19.50;99.90;;;;;;5062216;28;20455;-72
2021/07/15 04:13:43;;;;;;;8.67;6.53;;;19.60;98.50;;;;;;5063563;28;20451;-72
2021/07/15 04:16:38;;;;;;;9.60;6.13;;;19.60;97.60;;;;;;5064135;28;20463;-72
2021/07/15 04:19:09;;;;;;;6.57;5.97;;;19.50;99.40;;;;;;5058346;28;21025;-72
2021/07/15 04:21:39;;;;;;;9.90;6.03;;;19.50;99.90;;;;;;5061065;28;20450;-72
2021/07/15 04:24:07;;;;;;;6.80;6.20;;;19.50;99.90;;;;;;5063273;28;20459;-73
2021/07/15 04:26:34;;;;;;;11.63;5.67;;;19.50;99.90;;;;;;5059730;28;20923;-73
2021/07/15 04:29:04;;;;;;;6.87;6.10;;;19.60;99.90;;;;;;5061579;28;20460;-72
2021/07/15 04:31:43;;;;;;;6.10;5.60;;;19.60;99.90;;;;;;5061605;28;20532;-73
2021/07/15 04:34:11;;;;;;;6.83;6.23;;;19.70;99.90;;;;;;5061628;28;20448;-72
2021/07/15 04:36:40;;;;;;;7.50;6.70;;;19.70;99.90;;;;;;5061589;28;20467;-73
2021/07/15 04:39:07;;;;;;;6.70;6.10;;;19.70;99.90;;;;;;5058061;28;20479;-72
2021/07/15 04:41:34;;;;;;;6.47;5.87;;;19.80;99.90;;;;;;5056807;28;20463;-72
2021/07/15 04:44:02;;;;;;;6.77;6.17;;;19.80;99.90;;;;;;5057754;28;20470;-72
2021/07/15 04:46:28;;;;;;;6.70;5.70;;;19.80;99.90;;;;;;5057160;28;20490;-73
2021/07/15 04:48:56;;;;;;;6.07;5.47;;;19.90;98.30;;;;;;5057436;28;20452;-73
2021/07/15 04:51:25;;;;;;;5.83;5.27;;;19.90;91.40;;;;;;5057200;28;20459;-73
2021/07/15 04:53:53;;;;;;;5.53;5.10;;;19.90;89.10;;;;;;5061138;28;20456;-73
2021/07/15 04:56:21;;;;;;;5.00;4.23;;;20.00;71.40;;;;;;5063418;28;20459;-72
2021/07/15 04:58:48;;;;;;;5.20;4.70;;;20.10;45.90;;;;;;5064566;28;20466;-72
2021/07/15 05:01:15;;;;;;;5.03;4.57;;;20.10;34.60;;;;;;5064759;28;20451;-72
2021/07/15 05:03:42;;;;;;;4.60;4.00;;;20.10;40.70;;;;;;5063660;28;20454;-73
2021/07/15 05:06:10;;;;;;;4.73;4.20;;;20.10;36.10;;;;;;5064827;28;20455;-73
2021/07/15 05:08:39;;;;;;;4.03;3.73;;;20.10;30.50;;;;;;5065258;28;20447;-73
2021/07/15 05:11:08;;;;;;;4.83;4.33;;;20.10;15.90;;;;;;5065014;28;20904;-72
2021/07/15 05:13:34;;;;;;;4.27;3.93;;;20.20;13.00;;;;;;5064794;28;20537;-72
2021/07/15 05:16:01;;;;;;;7.60;3.73;;;20.20;12.80;;;;;;5064552;28;20455;-73
2021/07/15 05:18:28;;;;;;;3.77;3.47;;;20.30;15.30;;;;;;5065770;28;20877;-72
2021/07/15 05:20:54;;;;;;;4.23;3.80;;;20.30;15.30;;;;;;5064945;28;20482;-73
2021/07/15 05:23:23;;;;;;;4.00;3.70;;;20.40;5.00;;;;;;5065726;28;20466;-72
2021/07/15 05:25:51;;;;;;;3.80;3.43;;;20.40;1.00;;;;;;5065327;28;20474;-72
2021/07/15 05:28:18;;;;;;;4.80;3.50;;;20.40;1.00;;;;;;5064611;28;20455;-74
2021/07/15 05:30:45;;;;;;;3.50;3.27;;;20.50;1.00;;;;;;5064886;28;20462;-73
2021/07/15 05:33:12;;;;;;;3.20;2.90;;;20.60;1.00;;;;;;5064904;28;20455;-73
2021/07/15 05:35:40;;;;;;;2.90;2.70;;;20.60;1.00;;;;;;5064957;28;20817;-73
2021/07/15 05:38:07;;;;;;;3.20;3.00;;;20.60;1.00;;;;;;5065031;28;20509;-73
2021/07/15 05:40:35;;;;;;;3.30;3.00;;;20.70;1.00;;;;;;5065570;28;20482;-75
2021/07/15 05:43:02;;;;;;;3.00;2.80;;;20.70;1.00;;;;;;5065847;28;20451;-73
2021/07/15 05:45:30;;;;;;;2.80;2.60;;;20.70;1.00;;;;;;5065454;28;20483;-73
2021/07/15 05:47:57;;;;;;;3.07;2.80;;;20.70;1.00;;;;;;5065246;28;20466;-73
2021/07/15 05:50:24;;;;;;;4.60;3.60;;;20.80;1.00;;;;;;5064790;28;20470;-73
2021/07/15 05:52:50;;;;;;;9.10;7.83;;;20.80;1.00;;;;;;5064404;28;20462;-73
2021/07/15 05:55:17;;;;;;;3.90;3.50;;;20.90;1.00;;;;;;5055892;28;20468;-73
2021/07/15 05:57:45;;;;;;;3.80;3.50;;;20.90;1.00;;;;;;5054899;28;20455;-73
2021/07/15 06:00:14;;;;;;;3.27;2.97;;;21.00;1.00;;;;;;5055068;28;20489;-73
2021/07/15 06:02:40;;;;;;;3.20;2.90;;;21.00;1.00;;;;;;5054892;28;20789;-73
2021/07/15 06:05:08;;;;;;;6.23;2.67;;;21.10;1.00;;;;;;5055247;28;20470;-73
2021/07/15 06:07:37;;;;;;;4.10;2.63;;;21.10;1.00;;;;;;5055288;28;20474;-73
2021/07/15 06:10:04;;;;;;;3.33;2.70;;;21.20;1.00;;;;;;5054502;28;20959;-73
2021/07/15 06:12:31;;;;;;;4.73;3.00;;;21.30;1.00;;;;;;5054789;28;20938;-73
2021/07/15 06:14:59;;;;;;;3.30;3.10;;;21.30;1.00;;;;;;5054959;28;20459;-73
2021/07/15 06:17:26;;;;;;;3.30;2.97;;;21.40;1.00;;;;;;5054973;28;20471;-73
2021/07/15 06:19:55;;;;;;;3.20;2.90;;;21.40;1.00;;;;;;5054797;28;20487;-73
2021/07/15 06:22:22;;;;;;;5.17;2.90;;;21.40;1.00;;;;;;5054901;28;20455;-73
2021/07/15 06:24:48;;;;;;;3.20;2.80;;;21.40;1.00;;;;;;5054735;28;20471;-73
2021/07/15 06:27:15;;;;;;;4.97;2.87;;;21.40;99.90;;;;;;5054845;28;20455;-72
2021/07/15 06:29:42;;;;;;;3.10;2.90;;;21.30;1.00;;;;;;5054749;28;20451;-72
2021/07/15 06:32:10;;;;;;;3.60;3.10;;;21.30;1.00;;;;;;5055034;28;20772;-72
2021/07/15 06:34:37;;;;;;;2.37;2.17;;;21.30;1.00;;;;;;5054721;28;20475;-72
2021/07/15 06:37:07;;;;;;;2.30;2.10;;;21.30;99.90;;;;;;5054984;28;20501;-72
2021/07/15 06:39:35;;;;;;;2.43;2.23;;;21.30;99.90;;;;;;5054673;28;20469;-72
2021/07/15 06:42:03;;;;;;;2.43;2.10;;;21.40;99.90;;;;;;5054830;28;20466;-73
2021/07/15 06:44:30;;;;;;;3.50;2.63;;;21.40;99.90;;;;;;5054813;28;20466;-73
2021/07/15 06:46:58;;;;;;;2.50;2.30;;;21.50;99.90;;;;;;5055197;28;20492;-73
2021/07/15 06:49:27;;;;;;;2.40;2.20;;;21.60;99.90;;;;;;5054962;28;20467;-73
2021/07/15 06:51:54;;;;;;;3.20;2.13;;;21.70;99.90;;;;;;5054506;28;20451;-73
2021/07/15 06:54:21;;;;;;;4.03;2.13;;;21.80;47.70;;;;;;5054452;28;20455;-73
2021/07/15 06:56:48;;;;;;;21.37;17.73;;;21.90;1.00;;;;;;5054785;28;20753;-73
2021/07/15 06:59:15;;;;;;;3.07;2.40;;;22.00;29.20;;;;;;5054840;28;20529;-73
2021/07/15 07:01:44;;;;;;;2.70;2.10;;;22.20;1.00;;;;;;5055615;28;20487;-73
2021/07/15 07:04:11;;;;;;;2.60;1.87;;;22.30;1.00;;;;;;5055005;28;20459;-73
2021/07/15 07:06:39;;;;;;;2.23;2.03;;;22.50;1.00;;;;;;5058212;28;20773;-74
2021/07/15 07:09:06;;;;;;;1.70;1.60;;;22.60;1.00;;;;;;5058572;28;20463;-74
2021/07/15 07:11:33;;;;;;;1.87;1.60;;;22.80;99.90;;;;;;5058244;28;20467;-73
2021/07/15 07:13:59;;;;;;;1.97;1.87;;;23.00;99.90;;;;;;5058361;28;20467;-73
2021/07/15 07:16:26;;;;;;;1.70;1.60;;;23.10;1.00;;;;;;5058354;28;20463;-73
2021/07/15 07:18:53;;;;;;;2.43;1.70;;;23.10;99.90;;;;;;5058099;28;20534;-73
2021/07/15 07:21:19;;;;;;;2.20;2.00;;;23.10;99.90;;;;;;5058147;28;20582;-72
2021/07/15 07:23:47;;;;;;;5.87;3.53;;;23.20;99.90;;;;;;5058016;28;20915;-72
2021/07/15 07:26:14;;;;;;;2.37;1.77;;;23.20;99.90;;;;;;5058099;28;20454;-72
2021/07/15 07:28:41;;;;;;;4.40;1.90;;;23.20;1.00;;;;;;5058256;28;20789;-72
2021/07/15 07:31:07;;;;;;;1.83;1.47;;;23.30;1.00;;;;;;5057879;28;20455;-73
2021/07/15 07:33:34;;;;;;;2.50;1.90;;;23.30;1.00;;;;;;5058175;28;20463;-73
2021/07/15 07:36:01;;;;;;;4.40;1.73;;;23.30;1.00;;;;;;5057952;28;20455;-73
2021/07/15 07:38:29;;;;;;;3.10;2.40;;;23.40;1.00;;;;;;5058037;28;20473;-73
2021/07/15 07:40:57;;;;;;;2.03;1.70;;;23.40;1.00;;;;;;5057715;28;20846;-73
2021/07/15 07:43:24;;;;;;;1.97;1.77;;;23.30;1.00;;;;;;5058085;28;20455;-73
2021/07/15 07:45:51;;;;;;;3.00;2.40;;;23.30;1.00;;;;;;5057639;28;20491;-73
2021/07/15 07:48:18;;;;;;;5.97;2.03;;;23.30;1.00;;;;;;5057831;28;20455;-73
2021/07/15 07:50:45;;;;;;;2.47;1.90;;;23.30;1.00;;;;;;5057794;28;20478;-73
2021/07/15 07:53:11;;;;;;;3.80;1.60;;;23.30;1.00;;;;;;5057704;28;20455;-73
2021/07/15 07:55:39;;;;;;;2.20;1.97;;;23.30;1.00;;;;;;5057488;28;20455;-72
2021/07/15 07:58:07;;;;;;;1.87;1.73;;;23.30;1.00;;;;;;5057984;28;20459;-73
2021/07/15 08:00:34;;;;;;;2.33;1.70;;;23.30;1.00;;;;;;5057720;28;20479;-72
2021/07/15 08:03:01;;;;;;;14.20;11.80;;;23.30;1.00;;;;;;5057461;28;20462;-72
2021/07/15 08:05:28;;;;;;;3.17;2.73;;;23.30;1.00;;;;;;5057214;28;20465;-72
2021/07/15 08:07:55;;;;;;;3.00;1.80;;;23.40;1.00;;;;;;5057051;28;20509;-72
2021/07/15 08:10:22;;;;;;;2.03;1.83;;;23.50;1.00;;;;;;5056779;28;20931;-72
2021/07/15 08:12:51;;;;;;;2.10;1.90;;;23.50;1.00;;;;;;5057680;28;20463;-72
2021/07/15 08:15:19;;;;;;;2.10;1.90;;;23.50;1.00;;;;;;5057354;28;20466;-72
2021/07/15 08:17:49;;;;;;;2.23;1.70;;;23.60;1.00;;;;;;5057687;28;20533;-73
2021/07/15 08:20:16;;;;;;;1.93;1.80;;;23.60;99.90;;;;;;5057563;28;20544;-72
2021/07/15 08:22:43;;;;;;;2.00;1.73;;;23.60;1.00;;;;;;5057591;28;20459;-72
2021/07/15 08:25:11;;;;;;;3.53;1.80;;;23.60;1.00;;;;;;5057136;28;20593;-73
2021/07/15 08:27:38;;;;;;;1.60;1.50;;;23.70;1.00;;;;;;5056989;28;20454;-73
2021/07/15 08:30:07;;;;;;;2.03;1.83;;;23.80;1.00;;;;;;5057103;28;20904;-73
2021/07/15 08:32:35;;;;;;;2.30;1.80;;;23.90;99.90;;;;;;5057043;28;20459;-73
2021/07/15 08:35:02;;;;;;;5.20;1.93;;;23.90;1.00;;;;;;5057226;28;20834;-73
2021/07/15 08:37:34;;;;;;;1.50;1.40;;;24.00;99.90;;;;;;5056733;28;20926;-73
2021/07/15 08:40:01;;;;;;;1.73;1.60;;;24.00;99.90;;;;;;5058322;28;20446;-72
2021/07/15 08:42:28;;;;;;;1.93;1.53;;;24.00;99.90;;;;;;5057850;28;20505;-72
2021/07/15 08:44:55;;;;;;;4.00;1.83;;;24.10;99.90;;;;;;5056773;28;20520;-71
2021/07/15 08:47:22;;;;;;;4.03;1.83;;;24.20;89.40;;;;;;5057048;28;20442;-72
2021/07/15 08:49:51;;;;;;;4.10;1.40;;;24.20;16.40;;;;;;5056795;28;20478;-72
2021/07/15 08:52:17;;;;;;;2.10;1.50;;;24.30;42.20;;;;;;5056542;28;20451;-72
2021/07/15 08:54:55;;;;;;;2.53;1.83;;;24.30;1.00;;;;;;5056466;28;20448;-72
2021/07/15 08:57:21;;;;;;;2.07;1.43;;;24.30;1.00;;;;;;5056434;28;20470;-72
2021/07/15 08:59:48;;;;;;;1.80;1.57;;;24.30;1.00;;;;;;5056792;28;20809;-72
2021/07/15 09:02:20;;;;;;;2.07;1.83;;;24.40;1.00;;;;;;5056476;28;20225;-72
2021/07/15 09:04:47;;;;;;;1.47;1.30;;;24.40;1.00;;;;;;5056345;28;20439;-72
2021/07/15 09:07:15;;;;;;;3.00;1.70;;;24.50;1.00;;;;;;5056031;28;20458;-72
2021/07/15 09:09:45;;;;;;;2.67;1.40;;;24.60;1.00;;;;;;5055973;28;20462;-73
2021/07/15 09:12:13;;;;;;;1.83;1.60;;;24.80;1.00;;;;;;5055959;28;20467;-72
2021/07/15 09:14:47;;;;;;;1.73;1.63;;;24.90;1.00;;;;;;5056202;28;20455;-72
2021/07/15 09:17:15;;;;;;;1.63;1.50;;;25.10;99.90;;;;;;5055715;28;20458;-71
2021/07/15 09:19:45;;;;;;;5.20;2.33;;;25.20;99.90;;;;;;5056009;28;20549;-72
2021/07/15 09:22:14;;;;;;;3.40;1.50;;;25.30;20.90;;;;;;5056175;28;20566;-73
2021/07/15 09:24:44;;;;;;;2.00;1.80;;;25.40;1.00;;;;;;5056163;28;20470;-72
2021/07/15 09:27:13;;;;;;;1.67;1.57;;;25.40;1.80;;;;;;5056191;28;20497;-72
2021/07/15 09:29:40;;;;;;;1.80;1.40;;;25.50;1.00;;;;;;5056592;28;20772;-72
2021/07/15 09:32:09;;;;;;;1.93;1.40;;;25.50;1.00;;;;;;5056105;28;20791;-72
2021/07/15 09:34:38;;;;;;;3.50;1.90;;;25.50;1.00;;;;;;5056768;28;20471;-73
2021/07/15 09:37:13;;;;;;;2.50;1.80;;;25.50;1.00;;;;;;5056160;28;20455;-72
2021/07/15 09:39:48;;;;;;;1.80;1.70;;;25.40;1.00;;;;;;5055901;28;20466;-72
2021/07/15 09:42:18;;;;;;;1.50;1.37;;;25.50;1.00;;;;;;5055956;28;20471;-72
2021/07/15 09:44:47;;;;;;;1.87;1.50;;;25.60;1.00;;;;;;5055791;28;20467;-72
2021/07/15 09:47:34;;;;;;;1.87;1.67;;;25.70;1.00;;;;;;5055162;28;20518;-73
2021/07/15 09:50:01;;;;;;;2.73;1.90;;;25.90;1.00;;;;;;5054996;28;20463;-73
2021/07/15 09:52:28;;;;;;;1.97;1.70;;;26.10;1.00;;;;;;5057465;28;20435;-72
2021/07/15 09:55:20;;;;;;;2.10;1.60;;;26.20;1.00;;;;;;5055307;28;20931;-72
2021/07/15 09:57:47;;;;;;;2.70;2.50;;;26.40;1.00;;;;;;5055286;28;20435;-71
2021/07/15 10:00:15;;;;;;;1.77;1.67;;;26.50;1.00;;;;;;5055243;28;20451;-73
2021/07/15 10:02:42;;;;;;;2.00;1.80;;;26.60;1.00;;;;;;5055092;28;20487;-72
2021/07/15 10:05:14;;;;;;;2.80;2.10;;;26.70;1.00;;;;;;5055526;28;20455;-72
2021/07/15 10:07:41;;;;;;;2.20;2.00;;;26.70;99.90;;;;;;5055321;28;20486;-72
2021/07/15 10:10:20;;;;;;;2.03;1.90;;;26.70;99.90;;;;;;5055189;28;20469;-73
2021/07/15 10:12:47;;;;;;;2.20;1.83;;;26.80;99.90;;;;;;5054896;28;20837;-72
2021/07/15 10:15:15;;;;;;;1.90;1.80;;;26.80;99.90;;;;;;5055114;28;20470;-72
2021/07/15 10:17:44;;;;;;;2.53;2.33;;;26.80;99.90;;;;;;5054947;28;20459;-72
2021/07/15 10:20:12;;;;;;;2.77;2.33;;;26.90;99.90;;;;;;5054922;28;20463;-72
2021/07/15 10:22:41;;;;;;;2.60;2.40;;;26.90;99.90;;;;;;5054870;28;20803;-72
2021/07/15 10:25:09;;;;;;;3.40;2.23;;;27.00;99.90;;;;;;5055098;28;20835;-72
2021/07/15 10:27:38;;;;;;;10.23;2.10;;;27.00;99.90;;;;;;5054736;28;20465;-73
2021/07/15 10:30:07;;;;;;;4.53;2.37;;;27.00;99.90;;;;;;5055210;28;20498;-72
2021/07/15 10:32:36;;;;;;;2.57;2.37;;;26.90;99.90;;;;;;5055400;28;20467;-72
2021/07/15 10:35:05;;;;;;;3.20;2.10;;;26.90;99.90;;;;;;5054888;28;20935;-73
2021/07/15 10:37:38;;;;;;;3.93;2.77;;;26.80;99.90;;;;;;5055001;28;20455;-72
2021/07/15 10:40:08;;;;;;;3.13;2.63;;;26.80;99.90;;;;;;5055500;28;20451;-72
2021/07/15 10:42:34;;;;;;;4.27;2.27;;;26.80;99.90;;;;;;5058527;28;20478;-73
2021/07/15 10:45:03;;;;;;;3.50;1.97;;;26.90;99.90;;;;;;5058716;28;20465;-72
2021/07/15 10:47:31;;;;;;;2.00;1.80;;;26.80;99.90;;;;;;5058754;28;20462;-72
2021/07/15 10:49:59;;;;;;;2.20;2.00;;;26.80;99.90;;;;;;5058888;28;20455;-72
2021/07/15 10:52:26;;;;;;;2.37;2.17;;;26.80;99.90;;;;;;5059111;28;20490;-72
2021/07/15 10:54:57;;;;;;;2.40;2.20;;;26.90;99.90;;;;;;5058825;28;20458;-72
2021/07/15 10:57:25;;;;;;;2.50;2.20;;;27.10;99.90;;;;;;5058819;28;20439;-71
2021/07/15 10:59:52;;;;;;;1.97;1.83;;;27.20;99.90;;;;;;5058084;28;20956;-71
2021/07/15 11:02:25;;;;;;;2.80;2.60;;;27.40;99.90;;;;;;5058699;28;20989;-72
2021/07/15 11:04:53;;;;;;;3.20;2.67;;;27.70;99.90;;;;;;5058843;28;20890;-73
2021/07/15 11:07:27;;;;;;;4.90;2.57;;;27.90;99.90;;;;;;5058405;28;20455;-72
2021/07/15 11:10:12;;;;;;;2.43;2.23;;;28.00;99.90;;;;;;5058842;28;20898;-71
2021/07/15 11:12:39;;;;;;;3.37;2.40;;;28.00;99.90;;;;;;5058396;28;20752;-71
2021/07/15 11:15:10;;;;;;;3.30;3.00;;;28.20;99.90;;;;;;5058212;28;20797;-72
2021/07/15 11:17:48;;;;;;;2.77;2.57;;;28.20;99.90;;;;;;5057861;28;20451;-72
2021/07/15 11:20:18;;;;;;;2.83;2.63;;;28.30;99.90;;;;;;5058661;28;20508;-72
2021/07/15 11:22:48;;;;;;;2.97;2.77;;;28.30;99.90;;;;;;5058049;28;20494;-72
2021/07/15 11:25:19;;;;;;;3.20;2.90;;;28.20;99.90;;;;;;5057781;28;20903;-71
2021/07/15 11:27:51;;;;;;;3.33;2.67;;;28.40;99.90;;;;;;5058243;28;20459;-72
2021/07/15 11:30:50;;;;;;;3.00;2.80;;;28.50;99.90;;;;;;5057788;28;20453;-72
2021/07/15 11:33:37;;;;;;;2.47;2.30;;;28.70;99.90;;;;;;5058065;28;20535;-72
2021/07/15 11:36:13;;;;;;;2.70;2.50;;;28.90;99.90;;;;;;5058083;28;20439;-71
2021/07/15 11:38:42;;;;;;;2.67;2.47;;;29.00;99.90;;;;;;5058049;28;20477;-72
2021/07/15 11:41:10;;;;;;;3.17;2.80;;;28.90;99.90;;;;;;5057545;28;20533;-72
2021/07/15 11:43:50;;;;;;;3.20;2.90;;;28.90;99.90;;;;;;5057589;28;20458;-71
2021/07/15 11:46:19;;;;;;;2.60;2.40;;;29.10;99.90;;;;;;5058490;28;21007;-72
2021/07/15 11:48:58;;;;;;;6.20;3.50;;;29.70;99.90;;;;;;5057394;28;20451;-72
2021/07/15 11:51:30;;;;;;;2.63;2.43;;;30.30;99.90;;;;;;5057240;28;20773;-72
2021/07/15 11:54:20;;;;;;;2.27;2.17;;;30.80;99.90;;;;;;5057661;28;20530;-72
2021/07/15 11:56:49;;;;;;;3.17;2.53;;;31.10;73.80;;;;;;5057295;28;20463;-71
2021/07/15 11:59:36;;;;;;;2.77;2.57;;;31.20;51.80;;;;;;5057477;28;20455;-71
2021/07/15 12:02:05;;;;;;;2.93;2.57;;;31.10;34.40;;;;;;5057112;28;20478;-71
2021/07/15 12:05:10;;;;;;;3.30;1.90;;;30.90;34.00;;;;;;5057318;28;20505;-71
2021/07/15 12:07:37;;;;;;;3.07;2.20;;;30.90;28.10;;;;;;5062881;28;20443;-71
2021/07/15 12:10:07;;;;;;;2.63;2.43;;;31.20;23.10;;;;;;5063885;28;20504;-72
2021/07/15 12:12:33;;;;;;;2.50;2.27;;;31.50;23.60;;;;;;5058179;28;20447;-71
2021/07/15 12:15:00;;;;;;;2.03;1.93;;;32.00;9.70;;;;;;5057188;28;20927;-72
2021/07/15 12:17:31;;;;;;;5.17;2.00;;;32.40;2.70;;;;;;5058690;28;20459;-70
2021/07/15 12:19:59;;;;;;;6.90;2.17;;;32.90;1.00;;;;;;5057224;28;20807;-72
2021/07/15 12:22:27;;;;;;;2.23;2.03;;;33.40;1.00;;;;;;5057355;28;20490;-71
2021/07/15 12:25:10;;;;;;;4.03;2.00;;;33.80;1.00;;;;;;5057495;28;20455;-72
2021/07/15 12:27:40;;;;;;;2.33;2.13;;;34.10;1.00;;;;;;5057946;28;20450;-72
2021/07/15 12:30:08;;;;;;;2.30;2.10;;;33.90;1.00;;;;;;5058608;28;20470;-72
2021/07/15 12:32:36;;;;;;;2.00;1.80;;;33.60;1.00;;;;;;5057833;28;20459;-72
2021/07/15 12:35:11;;;;;;;2.40;2.20;;;33.50;1.00;;;;;;5057351;28;20467;-72
2021/07/15 12:37:39;;;;;;;3.20;2.70;;;33.80;1.00;;;;;;5057359;28;20438;-70
2021/07/15 12:40:08;;;;;;;2.20;2.00;;;34.20;1.00;;;;;;5057046;28;20455;-68
2021/07/15 12:42:36;;;;;;;2.43;1.80;;;34.60;1.00;;;;;;5056826;28;20475;-70
2021/07/15 12:45:17;;;;;;;3.00;1.83;;;34.70;1.00;;;;;;5056488;28;20810;-70
2021/07/15 12:47:57;;;;;;;2.30;2.10;;;34.70;1.00;;;;;;5057653;28;20439;-71
2021/07/15 12:50:24;;;;;;;3.10;2.30;;;34.70;1.00;;;;;;5056588;28;20435;-73
2021/07/15 12:53:11;;;;;;;3.20;1.90;;;34.50;1.00;;;;;;5057588;28;20791;-70
2021/07/15 12:55:39;;;;;;;2.60;2.40;;;33.90;1.00;;;;;;5058253;28;20458;-71
2021/07/15 12:58:06;;;;;;;5.30;2.50;;;33.50;1.00;;;;;;5057284;28;20459;-71
2021/07/15 13:00:34;;;;;;;3.13;2.30;;;33.20;1.00;;;;;;5057245;28;20469;-71
2021/07/15 13:03:01;;;;;;;2.43;1.90;;;32.60;1.00;;;;;;5055730;28;20488;-71
2021/07/15 13:05:28;;;;;;;2.00;1.80;;;32.40;1.00;;;;;;5056496;28;20467;-71